createdAt,value
2023-01-17T00:00:10.139Z,2.8
2023-01-17T00:05:10.096Z,2.8
2023-01-17T00:10:10.101Z,2.9
2023-01-17T00:15:10.089Z,2.9
2023-01-17T00:20:10.106Z,2.9
2023-01-17T00:25:10.099Z,2.9
2023-01-17T00:30:10.099Z,2.9
2023-01-17T00:35:10.127Z,2.9
2023-01-17T00:40:10.120Z,2.8
2023-01-17T00:45:10.092Z,2.8
2023-01-17T00:50:10.087Z,2.8
2023-01-17T00:55:10.087Z,2.8
2023-01-17T01:00:10.097Z,2.7
2023-01-17T01:05:10.096Z,2.7
2023-01-17T01:10:10.091Z,2.7
2023-01-17T01:15:10.087Z,2.7
2023-01-17T01:20:10.092Z,2.7
2023-01-17T01:25:10.083Z,2.7
2023-01-17T01:30:10.088Z,2.7
2023-01-17T01:35:10.105Z,2.7
2023-01-17T01:40:10.079Z,2.7
2023-01-17T01:45:10.083Z,2.7
2023-01-17T01:50:10.085Z,2.6
2023-01-17T01:55:10.082Z,2.6
2023-01-17T02:00:10.086Z,2.5
2023-01-17T02:05:10.092Z,2.5
2023-01-17T02:10:10.101Z,2.4
2023-01-17T02:15:10.093Z,2.4
2023-01-17T02:20:10.088Z,2.3
2023-01-17T02:25:10.099Z,2.3
2023-01-17T02:30:10.085Z,2.3
2023-01-17T02:35:10.092Z,2.2
2023-01-17T02:40:10.079Z,2.2
2023-01-17T02:45:10.088Z,2.3
2023-01-17T02:50:10.085Z,2.3
2023-01-17T02:55:10.088Z,2.3
2023-01-17T03:00:10.076Z,2.3
2023-01-17T03:05:10.090Z,2.3
2023-01-17T03:10:10.083Z,2.2
2023-01-17T03:15:10.092Z,2.2
2023-01-17T03:20:10.084Z,2.2
2023-01-17T03:25:10.197Z,2.2
2023-01-17T03:30:10.090Z,2.1
2023-01-17T03:35:10.104Z,2.1
2023-01-17T03:40:10.092Z,2.1
2023-01-17T03:45:10.088Z,2.1
2023-01-17T03:50:10.098Z,2.1
2023-01-17T03:55:10.085Z,2
2023-01-17T04:00:10.103Z,2
2023-01-17T04:05:10.084Z,2
2023-01-17T04:10:10.088Z,2
2023-01-17T04:15:10.089Z,1.9
2023-01-17T04:20:10.082Z,2
2023-01-17T04:25:10.091Z,1.9
2023-01-17T04:30:10.097Z,1.8
2023-01-17T04:35:10.093Z,1.8
2023-01-17T04:40:10.092Z,1.7
2023-01-17T04:45:10.083Z,1.7
2023-01-17T04:50:10.110Z,1.7
2023-01-17T04:55:10.092Z,1.6
2023-01-17T05:00:10.099Z,1.5
2023-01-17T05:05:10.104Z,1.3
2023-01-17T05:10:10.098Z,1.1
2023-01-17T05:15:10.092Z,1.1
2023-01-17T05:20:10.094Z,1
2023-01-17T05:25:10.086Z,0.9
2023-01-17T05:30:10.085Z,0.8
2023-01-17T05:35:10.108Z,0.9
2023-01-17T05:40:10.084Z,0.9
2023-01-17T05:45:10.088Z,0.8
2023-01-17T05:50:10.091Z,0.9
2023-01-17T05:55:10.093Z,0.9
2023-01-17T06:00:10.084Z,0.8
2023-01-17T06:05:10.096Z,0.8
2023-01-17T06:10:10.084Z,0.7
2023-01-17T06:15:10.086Z,0.7
2023-01-17T06:20:10.120Z,0.6
2023-01-17T06:25:10.193Z,0.6
2023-01-17T06:30:10.081Z,0.5
2023-01-17T06:35:10.100Z,0.3
2023-01-17T06:40:10.084Z,0.2
2023-01-17T06:45:10.095Z,0.1
2023-01-17T06:50:10.095Z,0.1
2023-01-17T06:55:10.112Z,0.1
2023-01-17T07:00:10.080Z,0.1
2023-01-17T07:05:10.089Z,0.1
2023-01-17T07:10:10.080Z,0.1
2023-01-17T07:15:10.115Z,0.1
2023-01-17T07:20:10.085Z,0.1
2023-01-17T07:25:10.096Z,-0.3
2023-01-17T07:30:10.096Z,-0.3
2023-01-17T07:35:10.098Z,-0.3
2023-01-17T07:40:10.083Z,-0.2
2023-01-17T07:45:10.101Z,-0.2
2023-01-17T07:50:10.130Z,0.1
2023-01-17T07:55:10.088Z,0.3
2023-01-17T08:00:10.099Z,0.3
2023-01-17T08:05:10.077Z,0.5
2023-01-17T08:10:10.091Z,0.7
2023-01-17T08:15:10.098Z,0.7
2023-01-17T08:20:10.096Z,0.8
2023-01-17T08:25:10.093Z,1
2023-01-17T08:30:10.100Z,1
2023-01-17T08:35:10.102Z,1.1
2023-01-17T08:40:10.090Z,1
2023-01-17T08:45:10.131Z,1
2023-01-17T08:50:10.091Z,1.1
2023-01-17T08:55:10.146Z,1.3
2023-01-17T09:00:10.107Z,1.3
2023-01-17T09:05:10.108Z,1.4
2023-01-17T09:10:10.089Z,1.5
2023-01-17T09:15:10.088Z,1.6
2023-01-17T09:20:10.094Z,1.6
2023-01-17T09:25:10.100Z,1.7
2023-01-17T09:30:10.088Z,1.6
2023-01-17T09:35:10.103Z,1.8
2023-01-17T09:40:10.097Z,1.8
2023-01-17T09:45:10.102Z,1.9
2023-01-17T09:50:10.089Z,2
2023-01-17T09:55:10.087Z,2
2023-01-17T10:00:10.085Z,1.9
2023-01-17T10:05:10.176Z,1.8
2023-01-17T10:10:10.091Z,1.8
2023-01-17T10:15:10.090Z,1.8
2023-01-17T10:20:10.099Z,1.7
2023-01-17T10:25:10.086Z,1.5
2023-01-17T10:30:10.088Z,1.5
2023-01-17T10:35:10.099Z,1.6
2023-01-17T10:40:10.082Z,1.8
2023-01-17T10:45:10.092Z,1.8
2023-01-17T10:50:10.083Z,1.9
2023-01-17T10:55:10.106Z,1.9
2023-01-17T11:00:10.125Z,2
2023-01-17T11:05:10.093Z,2.2
2023-01-17T11:10:10.084Z,2.5
2023-01-17T11:15:10.093Z,2.5
2023-01-17T11:20:10.088Z,2.6
2023-01-17T11:25:10.088Z,2.6
2023-01-17T11:30:10.098Z,2.6
2023-01-17T11:35:10.089Z,3
2023-01-17T11:40:10.095Z,3.2
2023-01-17T11:45:10.092Z,3.4
2023-01-17T11:50:10.088Z,3.6
2023-01-17T11:55:10.085Z,3.4
2023-01-17T12:00:10.086Z,3.7
2023-01-17T12:05:10.137Z,4.2
2023-01-17T12:10:10.109Z,4.3
2023-01-17T12:15:10.107Z,3.9
2023-01-17T12:20:10.089Z,4.1
2023-01-17T12:25:10.119Z,4.2
2023-01-17T12:30:10.092Z,4.2
2023-01-17T12:35:10.086Z,4.4
2023-01-17T12:40:10.086Z,4.7
2023-01-17T12:45:10.104Z,4.6
2023-01-17T12:50:10.083Z,4.2
2023-01-17T12:55:10.092Z,4.1
2023-01-17T13:00:10.092Z,3.8
2023-01-17T13:05:10.099Z,3.8
2023-01-17T13:10:10.089Z,3.9
2023-01-17T13:15:10.087Z,4.6
2023-01-17T13:20:10.099Z,4
2023-01-17T13:25:10.092Z,3.7
2023-01-17T13:30:10.167Z,3.6
2023-01-17T13:35:10.099Z,3.4
2023-01-17T13:40:10.087Z,3.5
2023-01-17T13:45:10.092Z,3.5
2023-01-17T13:50:10.084Z,3.4
2023-01-17T13:55:10.095Z,3.3
2023-01-17T14:00:10.083Z,3.3
2023-01-17T14:05:10.096Z,3.3
2023-01-17T14:10:10.103Z,3.1
2023-01-17T14:15:10.086Z,3.1
2023-01-17T14:20:10.090Z,3.1
2023-01-17T14:25:10.151Z,3
2023-01-17T14:30:10.091Z,3.3
2023-01-17T14:35:10.093Z,3.6
2023-01-17T14:40:10.090Z,3.3
2023-01-17T14:45:10.091Z,3.1
2023-01-17T14:50:10.120Z,3.1
2023-01-17T14:55:10.090Z,2.9
2023-01-17T15:00:10.137Z,2.7
2023-01-17T15:05:10.098Z,2.6
2023-01-17T15:10:10.086Z,2.3
2023-01-17T15:15:10.087Z,2.2
2023-01-17T15:20:10.084Z,2
2023-01-17T15:25:10.092Z,1.9
2023-01-17T15:30:10.091Z,1.7
2023-01-17T15:35:10.085Z,1.5
2023-01-17T15:40:10.085Z,1.3
2023-01-17T15:45:10.085Z,1.1
2023-01-17T15:50:10.090Z,1
2023-01-17T15:55:10.077Z,0.9
2023-01-17T16:00:10.085Z,0.8
2023-01-17T16:05:10.083Z,0.6
2023-01-17T16:10:10.087Z,0.6
2023-01-17T16:15:13.016Z,0.5
2023-01-17T16:20:10.082Z,0.6
2023-01-17T16:25:10.098Z,0.4
2023-01-17T16:30:10.084Z,0.3
2023-01-17T16:35:10.089Z,0.2
2023-01-17T16:40:10.096Z,-0.1
2023-01-17T16:45:10.096Z,-0.1
2023-01-17T16:50:10.093Z,-0.1
2023-01-17T16:55:10.097Z,-0.1
2023-01-17T17:00:10.093Z,-0.1
2023-01-17T17:05:10.097Z,-0.1
2023-01-17T17:10:10.123Z,0.3
2023-01-17T17:15:10.101Z,0.6
2023-01-17T17:20:10.094Z,0.7
2023-01-17T17:25:10.094Z,0.6
2023-01-17T17:30:10.148Z,0.7
2023-01-17T17:35:10.121Z,0.7
2023-01-17T17:40:10.108Z,0.7
2023-01-17T17:45:10.109Z,0.7
2023-01-17T17:50:10.127Z,0.6
2023-01-17T17:55:10.098Z,0.7
2023-01-17T18:00:10.091Z,0.7
2023-01-17T18:05:10.136Z,0.7
2023-01-17T18:10:10.088Z,0.6
2023-01-17T18:15:10.091Z,0.6
2023-01-17T18:20:10.093Z,0.5
2023-01-17T18:25:10.092Z,0.5
2023-01-17T18:30:10.092Z,0.5
2023-01-17T18:35:10.089Z,0.4
2023-01-17T18:40:10.094Z,0.4
2023-01-17T18:45:10.134Z,0.4
2023-01-17T18:50:10.114Z,0.4
2023-01-17T18:55:10.128Z,0.4
2023-01-17T19:00:10.108Z,0.3
2023-01-17T19:05:10.116Z,0.3
2023-01-17T19:10:10.143Z,0.2
2023-01-17T19:15:10.108Z,0.2
2023-01-17T19:20:10.108Z,0.1
2023-01-17T19:25:10.085Z,0.1
2023-01-17T19:30:10.099Z,0.1
2023-01-17T19:35:10.101Z,0.1
2023-01-17T19:40:10.085Z,0.1
2023-01-17T19:45:10.102Z,0.1
2023-01-17T19:50:10.098Z,0.2
2023-01-17T19:55:10.087Z,0.1
2023-01-17T20:00:10.089Z,0.1
2023-01-17T20:05:10.101Z,0.1
2023-01-17T20:10:10.093Z,0.1
2023-01-17T20:15:10.084Z,0.1
2023-01-17T20:20:10.104Z,0.1
2023-01-17T20:25:10.090Z,0.1
2023-01-17T20:30:19.543Z,0.1
2023-01-17T20:35:10.091Z,0.1
2023-01-17T20:40:10.081Z,0.1
2023-01-17T20:45:10.083Z,0.1
2023-01-17T20:50:10.094Z,-0.1
2023-01-17T20:55:10.094Z,-0.1
2023-01-17T21:00:10.083Z,-0.1
2023-01-17T21:05:10.109Z,-0.1
2023-01-17T21:10:10.094Z,-0.1
2023-01-17T21:15:10.091Z,0.1
2023-01-17T21:20:10.092Z,0.1
2023-01-17T21:25:10.084Z,0.1
2023-01-17T21:30:10.084Z,0.1
2023-01-17T21:35:10.103Z,0.2
2023-01-17T21:40:10.095Z,0.2
2023-01-17T21:45:10.097Z,0.2
2023-01-17T21:50:10.091Z,0.2
2023-01-17T21:55:10.085Z,0.2
2023-01-17T22:00:10.131Z,0.2
2023-01-17T22:05:10.129Z,0.3
2023-01-17T22:10:10.094Z,0.3
2023-01-17T22:15:10.095Z,0.3
2023-01-17T22:20:10.086Z,0.3
2023-01-17T22:25:10.083Z,0.2
2023-01-17T22:30:10.102Z,0.3
2023-01-17T22:35:10.109Z,0.3
2023-01-17T22:40:10.151Z,0.3
2023-01-17T22:45:10.120Z,0.3
2023-01-17T22:50:10.093Z,0.3
2023-01-17T22:55:10.095Z,0.2
2023-01-17T23:00:10.083Z,0.2
2023-01-17T23:05:10.087Z,0.2
2023-01-17T23:10:10.090Z,0.2
2023-01-17T23:15:10.090Z,0.2
2023-01-17T23:20:10.089Z,0.2
2023-01-17T23:25:10.090Z,0.2
2023-01-17T23:30:10.084Z,0.2
2023-01-17T23:35:10.094Z,0.1
2023-01-17T23:40:10.087Z,0.2
2023-01-17T23:45:10.103Z,0.2
2023-01-17T23:50:10.113Z,0.1
2023-01-17T23:55:10.085Z,0.1
